Time;durP1;ratioP1;P1;durP2;ratioP2;P2;SDS_P1;SDS_P2;PMS_P1;PMS_P2;Temp;Humidity;BMP_temperature;BMP_pressure;BME280_temperature;BME280_humidity;BME280_pressure;Samples;Min_cycle;Max_cycle;Signal;HPM_P1;HPM_P2
2023/10/05 00:01:21;;;;;;;7.63;2.22;;;;;;;7.10;100.00;98274.94;5003402;28;20038;-65
2023/10/05 00:03:50;;;;;;;9.13;2.25;;;;;;;7.31;100.00;98274.94;5002315;28;20678;-65
2023/10/05 00:06:23;;;;;;;4.32;1.95;;;;;;;7.42;100.00;98275.13;5003908;28;20061;-64
2023/10/05 00:08:55;;;;;;;5.35;1.80;;;;;;;7.53;100.00;98270.94;5002622;28;20038;-65
2023/10/05 00:11:29;;;;;;;5.20;1.83;;;;;;;7.57;100.00;98268.69;5010061;28;20038;-64
2023/10/05 00:13:58;;;;;;;3.88;1.58;;;;;;;7.60;100.00;98264.75;4997293;28;20705;-64
2023/10/05 00:16:36;;;;;;;4.70;1.95;;;;;;;7.63;100.00;98269.72;5003250;28;20041;-64
2023/10/05 00:19:08;;;;;;;5.03;1.88;;;;;;;7.45;100.00;98262.28;4997297;28;20038;-65
2023/10/05 00:21:35;;;;;;;6.20;1.90;;;;;;;7.29;100.00;98261.66;5002742;28;20040;-65
2023/10/05 00:24:04;;;;;;;4.78;1.92;;;;;;;7.22;100.00;98269.75;4996343;28;20049;-64
2023/10/05 00:26:32;;;;;;;5.53;1.77;;;;;;;7.29;100.00;98257.13;5003384;28;20034;-64
2023/10/05 00:29:18;;;;;;;5.43;1.73;;;;;;;7.37;100.00;98247.97;5002341;28;20049;-64
2023/10/05 00:31:45;;;;;;;5.28;1.45;;;;;;;7.46;100.00;98242.38;5001620;28;20048;-64
2023/10/05 00:34:17;;;;;;;4.15;1.60;;;;;;;7.27;100.00;98237.63;5002890;28;20061;-65
2023/10/05 00:36:48;;;;;;;4.18;1.60;;;;;;;6.97;100.00;98238.06;5002539;28;20054;-65
2023/10/05 00:39:19;;;;;;;5.75;1.80;;;;;;;6.86;100.00;98252.16;4985961;28;20069;-65
2023/10/05 00:41:58;;;;;;;5.35;1.80;;;;;;;6.94;100.00;98256.50;5002160;28;20057;-65
2023/10/05 00:44:24;;;;;;;3.55;1.40;;;;;;;7.01;100.00;98243.88;5001970;28;20056;-64
2023/10/05 00:46:52;;;;;;;5.55;1.98;;;;;;;7.09;100.00;98242.81;4985461;28;20074;-64
2023/10/05 00:49:23;;;;;;;5.05;1.90;;;;;;;7.01;100.00;98249.25;5003705;28;20064;-64
2023/10/05 00:51:59;;;;;;;4.25;1.73;;;;;;;6.96;100.00;98243.66;5002442;28;20042;-64
2023/10/05 00:54:30;;;;;;;5.93;1.75;;;;;;;6.95;100.00;98242.00;5002280;28;20689;-64
2023/10/05 00:56:57;;;;;;;5.55;1.70;;;;;;;6.85;100.00;98237.00;5003144;28;20852;-64
2023/10/05 00:59:25;;;;;;;5.60;1.70;;;;;;;6.83;100.00;98237.25;4984714;28;20065;-65
2023/10/05 01:02:04;;;;;;;4.70;1.92;;;;;;;6.89;100.00;98227.50;5000326;28;20481;-64
2023/10/05 01:04:34;;;;;;;5.75;1.83;;;;;;;6.98;100.00;98220.88;5004087;28;20390;-65
2023/10/05 01:07:18;;;;;;;2.72;1.63;;;;;;;7.10;100.00;98213.00;4985367;28;20462;-64
2023/10/05 01:12:38;;;;;;;5.07;1.70;;;;;;;7.12;100.00;98202.81;4979085;28;20569;-66
2023/10/05 01:15:15;;;;;;;3.53;1.70;;;;;;;7.20;100.00;98198.28;4986447;28;20422;-66
2023/10/05 01:17:42;;;;;;;4.03;1.55;;;;;;;7.29;100.00;98197.00;4979743;28;20052;-64
2023/10/05 01:20:13;;;;;;;3.90;1.50;;;;;;;7.15;100.00;98198.91;4982674;28;20056;-64
2023/10/05 01:22:40;;;;;;;6.18;1.77;;;;;;;7.03;100.00;98202.22;4981157;28;20052;-65
2023/10/05 01:25:08;;;;;;;4.82;2.03;;;;;;;6.96;100.00;98214.06;4992728;28;20046;-65
2023/10/05 01:27:40;;;;;;;5.45;1.98;;;;;;;6.97;100.00;98218.41;4990238;28;20057;-64
2023/10/05 01:30:12;;;;;;;;;;;;;;;6.86;100.00;98212.56;4988012;28;20073;-64
2023/10/05 01:32:41;;;;;;;;;;;;;;;6.84;100.00;98209.28;4970382;28;19922;-65
2023/10/05 01:35:13;;;;;;;5.13;1.98;;;;;;;6.90;100.00;98211.13;4974384;28;19968;-64
2023/10/05 01:37:44;;;;;;;6.07;1.83;;;;;;;6.95;100.00;98205.13;4983906;28;20081;-65
2023/10/05 01:42:51;;;;;;;5.47;1.85;;;;;;;7.15;100.00;98205.09;4994772;28;20132;-65
2023/10/05 01:45:29;;;;;;;7.10;1.70;;;;;;;7.23;100.00;98200.56;4991118;28;20134;-64
2023/10/05 01:48:01;;;;;;;4.32;2.17;;;;;;;7.05;100.00;98185.03;4985597;28;20068;-64
2023/10/05 01:50:28;;;;;;;3.65;1.58;;;;;;;7.00;100.00;98186.47;4986254;28;20498;-65
2023/10/05 01:53:07;;;;;;;5.68;1.77;;;;;;;7.08;100.00;98185.44;4985237;28;20435;-65
2023/10/05 01:55:35;;;;;;;3.90;1.67;;;;;;;7.08;100.00;98187.31;4985922;28;20099;-64
2023/10/05 01:58:07;;;;;;;8.35;2.08;;;;;;;7.02;100.00;98184.44;4968324;28;20717;-64
2023/10/05 02:00:38;;;;;;;3.78;1.65;;;;;;;7.05;100.00;98193.94;4977742;28;20440;-65
2023/10/05 02:03:11;;;;;;;4.53;1.90;;;;;;;7.09;100.00;98187.09;4986172;28;20070;-64
2023/10/05 02:05:38;;;;;;;6.10;1.83;;;;;;;7.04;100.00;98189.56;4991559;28;20331;-65
2023/10/05 02:08:05;;;;;;;5.97;1.80;;;;;;;7.01;100.00;98176.56;4989349;28;20046;-65
2023/10/05 02:10:33;;;;;;;5.70;1.77;;;;;;;7.02;100.00;98187.13;4997464;28;20042;-65
2023/10/05 02:13:01;;;;;;;4.63;1.77;;;;;;;7.20;100.00;98184.81;4991425;28;20589;-64
2023/10/05 02:15:30;;;;;;;3.40;1.50;;;;;;;7.17;100.00;98186.06;5004267;28;20152;-65
2023/10/05 02:18:02;;;;;;;5.32;2.17;;;;;;;7.10;100.00;98182.53;4980910;28;20038;-64
2023/10/05 02:22:58;;;;;;;4.60;1.95;;;;;;;7.00;100.00;98188.34;4984312;28;20038;-65
2023/10/05 02:25:34;;;;;;;4.13;1.70;;;;;;;6.88;100.00;98183.59;4995047;28;20054;-64
2023/10/05 02:28:00;;;;;;;6.80;1.67;;;;;;;6.87;100.00;98186.50;4987355;28;20093;-65
2023/10/05 02:30:27;;;;;;;2.72;1.30;;;;;;;6.98;100.00;98185.03;4984951;28;20049;-65
2023/10/05 02:32:55;;;;;;;3.25;1.67;;;;;;;7.01;100.00;98179.25;4992432;28;20050;-65
2023/10/05 02:35:29;;;;;;;7.45;2.38;;;;;;;6.92;100.00;98183.19;4993742;28;20042;-65
2023/10/05 02:38:05;;;;;;;5.95;2.22;;;;;;;6.98;100.00;98183.19;4989726;28;20039;-65
2023/10/05 02:40:46;;;;;;;4.38;2.08;;;;;;;7.00;100.00;98185.66;4988712;28;20038;-65
2023/10/05 02:43:15;;;;;;;4.75;2.03;;;;;;;7.04;100.00;98181.50;4975900;28;20038;-65
2023/10/05 02:45:44;;;;;;;7.03;1.80;;;;;;;7.04;100.00;98184.19;4979845;28;20072;-65
2023/10/05 02:48:11;;;;;;;8.05;1.85;;;;;;;7.08;100.00;98179.22;4990629;28;20045;-64
2023/10/05 02:50:39;;;;;;;4.78;1.80;;;;;;;7.02;100.00;98188.97;4987219;28;20042;-65
2023/10/05 02:53:06;;;;;;;3.53;1.70;;;;;;;7.06;100.00;98181.28;4991784;28;20046;-64
2023/10/05 02:55:36;;;;;;;3.90;1.60;;;;;;;7.14;100.00;98171.16;4988968;28;20038;-66
2023/10/05 02:58:06;;;;;;;6.88;1.83;;;;;;;7.15;100.00;98164.72;4968850;28;20034;-64
2023/10/05 03:00:35;;;;;;;5.07;2.25;;;;;;;7.15;100.00;98164.72;4985493;28;20061;-64
2023/10/05 03:03:03;;;;;;;4.55;1.50;;;;;;;7.30;100.00;98171.75;4977873;28;20090;-65
2023/10/05 03:05:35;;;;;;;5.13;1.73;;;;;;;7.30;100.00;98166.34;4983910;28;20049;-64
2023/10/05 03:08:04;;;;;;;5.63;2.33;;;;;;;7.25;100.00;98164.28;4968293;28;20218;-64
2023/10/05 03:10:30;;;;;;;6.10;1.95;;;;;;;7.06;100.00;98168.66;4983401;28;20050;-66
2023/10/05 03:12:58;;;;;;;4.25;1.60;;;;;;;7.05;100.00;98172.41;4968172;28;20130;-65
2023/10/05 03:15:27;;;;;;;5.00;1.75;;;;;;;6.97;100.00;98165.34;4972216;28;20589;-64
2023/10/05 03:17:58;;;;;;;4.20;1.85;;;;;;;6.86;100.00;98169.50;4972705;28;20093;-65
2023/10/05 03:20:28;;;;;;;3.85;1.70;;;;;;;6.87;100.00;98175.72;4966215;28;20046;-65
2023/10/05 03:22:55;;;;;;;5.05;1.85;;;;;;;6.93;100.00;98174.06;4983161;28;20050;-65
2023/10/05 03:25:23;;;;;;;5.22;2.10;;;;;;;7.00;100.00;98166.78;4967432;28;20042;-65
2023/10/05 03:27:50;;;;;;;5.38;1.70;;;;;;;7.08;100.00;98171.97;4982293;28;21996;-65
2023/10/05 03:30:17;;;;;;;5.53;1.88;;;;;;;7.18;100.00;98176.13;4990527;28;20078;-65
2023/10/05 03:32:48;;;;;;;4.93;1.88;;;;;;;7.21;100.00;98171.13;5005815;28;20428;-64
2023/10/05 03:35:22;;;;;;;5.18;1.85;;;;;;;7.23;100.00;98162.84;4995844;28;20602;-65
2023/10/05 03:37:49;;;;;;;4.90;2.00;;;;;;;7.24;100.00;98173.41;4984057;28;20115;-65
2023/10/05 03:40:25;;;;;;;4.15;1.83;;;;;;;7.35;100.00;98171.94;4991679;28;20046;-64
2023/10/05 03:42:57;;;;;;;3.38;1.70;;;;;;;7.57;100.00;98173.50;4973336;28;20141;-64
2023/10/05 03:45:31;;;;;;;4.75;1.80;;;;;;;7.66;100.00;98178.47;4980673;28;20046;-65
2023/10/05 03:47:58;;;;;;;3.67;1.88;;;;;;;7.66;100.00;98185.72;4985068;28;20254;-65
2023/10/05 03:50:24;;;;;;;6.57;2.42;;;;;;;7.65;100.00;98184.06;4995298;28;20117;-64
2023/10/05 03:52:51;;;;;;;5.38;1.85;;;;;;;7.61;100.00;98189.06;4975144;28;20051;-65
2023/10/05 03:55:20;;;;;;;8.32;1.83;;;;;;;7.61;100.00;98189.06;4978805;28;20038;-65
2023/10/05 03:57:51;;;;;;;5.43;1.80;;;;;;;7.71;100.00;98188.63;4989783;28;20161;-64
2023/10/05 04:00:23;;;;;;;8.30;1.98;;;;;;;7.63;100.00;98192.34;4968225;28;20096;-64
2023/10/05 04:02:54;;;;;;;3.88;1.80;;;;;;;7.67;100.00;98198.16;4977162;28;20051;-64
2023/10/05 04:05:22;;;;;;;4.70;1.65;;;;;;;7.68;100.00;98197.94;4972758;28;20530;-64
2023/10/05 04:07:52;;;;;;;4.88;1.77;;;;;;;7.60;100.00;98198.19;4983036;28;20038;-65
2023/10/05 04:10:38;;;;;;;3.35;1.50;;;;;;;7.70;100.00;98205.00;4984276;28;20117;-64
2023/10/05 04:13:05;;;;;;;4.20;1.65;;;;;;;7.78;100.00;98196.69;4982899;28;20502;-64
2023/10/05 04:15:31;;;;;;;5.57;2.00;;;;;;;7.81;100.00;98199.75;4993401;28;20056;-65
2023/10/05 04:17:58;;;;;;;3.85;1.50;;;;;;;7.85;100.00;98193.97;4987884;28;20122;-65
2023/10/05 04:20:28;;;;;;;4.60;1.58;;;;;;;7.91;100.00;98195.78;4983889;28;20823;-65
2023/10/05 04:22:56;;;;;;;5.28;1.58;;;;;;;7.85;100.00;98185.88;4981910;28;20057;-64
2023/10/05 04:25:23;;;;;;;3.88;1.65;;;;;;;7.84;100.00;98182.34;4988578;28;20046;-64
2023/10/05 04:27:50;;;;;;;6.43;1.75;;;;;;;7.85;100.00;98181.28;4982802;28;20053;-64
2023/10/05 04:30:21;;;;;;;6.68;1.70;;;;;;;7.80;100.00;98186.50;4983823;28;20129;-64
2023/10/05 04:32:48;;;;;;;;;;;;;;;7.84;100.00;98185.03;4987352;28;20544;-64
2023/10/05 04:35:28;;;;;;;5.80;1.98;;;;;;;7.86;100.00;98179.44;4983788;28;20300;-64
2023/10/05 04:37:56;;;;;;;5.85;1.77;;;;;;;7.85;100.00;98178.59;4982361;28;20117;-64
2023/10/05 04:40:24;;;;;;;3.75;1.52;;;;;;;7.93;100.00;98183.72;4983642;28;20402;-64
2023/10/05 04:42:52;;;;;;;4.35;2.03;;;;;;;7.94;100.00;98182.72;4982394;28;21751;-65
2023/10/05 04:45:20;;;;;;;4.35;1.65;;;;;;;7.90;100.00;98184.19;4983358;28;20053;-66
2023/10/05 04:47:48;;;;;;;4.20;1.88;;;;;;;7.75;100.00;98176.38;4985503;28;20094;-64
2023/10/05 04:50:17;;;;;;;4.60;1.90;;;;;;;7.83;100.00;98177.16;4993345;28;20046;-65
2023/10/05 04:52:50;;;;;;;4.70;1.88;;;;;;;7.85;100.00;98175.09;4986370;28;20046;-65
2023/10/05 04:55:30;;;;;;;5.60;1.95;;;;;;;7.95;100.00;98186.22;4999778;28;20038;-65
2023/10/05 04:58:15;;;;;;;3.95;1.85;;;;;;;7.92;100.00;98182.09;4988495;28;20514;-64
2023/10/05 05:03:32;;;;;;;4.85;1.60;;;;;;;7.93;100.00;98177.53;4997753;28;20513;-65
2023/10/05 05:08:26;;;;;;;6.43;1.98;;;;;;;7.80;100.00;98175.72;4992923;28;20773;-65
2023/10/05 05:10:53;;;;;;;4.63;1.98;;;;;;;7.74;100.00;98176.56;4986167;28;20069;-65
2023/10/05 05:13:20;;;;;;;5.28;2.10;;;;;;;7.64;100.00;98168.94;4986903;28;20045;-64
2023/10/05 05:15:47;;;;;;;3.92;2.15;;;;;;;7.63;100.00;98167.28;4986213;28;20058;-65
2023/10/05 05:18:14;;;;;;;5.00;1.90;;;;;;;7.78;100.00;98167.84;4987931;28;20064;-65
2023/10/05 05:20:44;;;;;;;4.22;1.60;;;;;;;7.79;100.00;98163.28;4988061;28;20049;-65
2023/10/05 05:23:12;;;;;;;5.13;2.15;;;;;;;7.84;100.00;98166.16;4992597;28;20042;-65
2023/10/05 05:25:39;;;;;;;3.35;1.63;;;;;;;7.92;100.00;98171.31;4986806;28;20101;-65
2023/10/05 05:28:07;;;;;;;5.30;1.95;;;;;;;7.96;100.00;98173.56;4985951;28;20050;-64
2023/10/05 05:30:36;;;;;;;7.40;1.90;;;;;;;7.81;100.00;98180.06;4990690;28;20065;-65
2023/10/05 05:33:12;;;;;;;4.28;1.88;;;;;;;7.88;100.00;98180.03;4988370;28;20508;-65
2023/10/05 05:35:39;;;;;;;4.47;1.70;;;;;;;7.80;100.00;98184.63;4992883;28;20052;-64
2023/10/05 05:38:09;;;;;;;4.20;1.73;;;;;;;7.79;100.00;98188.38;4984443;28;20043;-64
2023/10/05 05:40:37;;;;;;;5.93;2.30;;;;;;;7.70;100.00;98184.25;4984515;28;20050;-64
2023/10/05 05:43:08;;;;;;;4.15;1.95;;;;;;;7.63;100.00;98191.53;4983565;28;20072;-65
2023/10/05 05:45:39;;;;;;;5.22;1.65;;;;;;;7.68;100.00;98181.75;4994177;28;20058;-65
2023/10/05 05:48:09;;;;;;;4.53;1.65;;;;;;;7.75;100.00;98173.69;4985071;28;20046;-65
2023/10/05 05:50:39;;;;;;;4.20;1.90;;;;;;;7.86;100.00;98176.72;4993335;28;20046;-64
2023/10/05 05:53:11;;;;;;;4.45;1.80;;;;;;;8.01;100.00;98184.53;4984619;28;20509;-64
2023/10/05 05:55:44;;;;;;;9.02;2.38;;;;;;;7.99;100.00;98181.25;4988932;28;20046;-65
2023/10/05 05:58:16;;;;;;;5.35;1.90;;;;;;;8.00;100.00;98189.09;4983747;28;20061;-64
2023/10/05 06:00:46;;;;;;;5.93;2.00;;;;;;;7.98;100.00;98182.25;4989746;28;20239;-65
2023/10/05 06:03:16;;;;;;;5.75;1.60;;;;;;;7.67;100.00;98180.09;4990139;28;20042;-64
2023/10/05 06:05:43;;;;;;;5.00;2.37;;;;;;;7.72;100.00;98197.50;4982988;28;20429;-65
2023/10/05 06:08:11;;;;;;;7.25;2.00;;;;;;;7.77;100.00;98197.69;4990803;28;20042;-66
2023/10/05 06:10:38;;;;;;;6.13;2.28;;;;;;;7.71;100.00;98196.72;4983729;28;20050;-64
2023/10/05 06:13:11;;;;;;;5.35;2.13;;;;;;;7.80;100.00;98200.81;4990510;28;20081;-64
2023/10/05 06:15:38;;;;;;;4.82;2.00;;;;;;;7.76;100.00;98209.53;4988360;28;20039;-64
2023/10/05 06:18:05;;;;;;;4.43;1.88;;;;;;;7.69;100.00;98206.84;4988030;28;20038;-64
2023/10/05 06:20:31;;;;;;;3.83;2.10;;;;;;;7.65;100.00;98211.00;4992176;28;20058;-64
2023/10/05 06:23:00;;;;;;;4.43;1.90;;;;;;;7.77;100.00;98206.63;4984834;28;20046;-64
2023/10/05 06:25:27;;;;;;;4.28;2.08;;;;;;;7.93;100.00;98204.50;4999881;28;20046;-64
2023/10/05 06:27:54;;;;;;;7.50;2.30;;;;;;;8.06;100.00;98214.38;4987267;28;20050;-64
2023/10/05 06:30:20;;;;;;;5.28;1.90;;;;;;;8.11;100.00;98229.94;4993092;28;20060;-64
2023/10/05 06:32:47;;;;;;;7.38;2.42;;;;;;;8.06;100.00;98220.63;4984222;28;20057;-64
2023/10/05 06:35:14;;;;;;;5.32;2.47;;;;;;;7.96;100.00;98225.63;4984741;28;20038;-64
2023/10/05 06:37:41;;;;;;;7.20;2.22;;;;;;;8.01;100.00;98225.84;4984525;28;20062;-64
2023/10/05 06:40:12;;;;;;;4.65;1.98;;;;;;;8.19;100.00;98218.91;4980295;28;20034;-64
2023/10/05 06:42:44;;;;;;;5.85;2.03;;;;;;;8.39;100.00;98223.34;4986521;28;20098;-64
2023/10/05 06:45:13;;;;;;;4.97;1.98;;;;;;;8.55;100.00;98228.25;4978270;28;20552;-64
2023/10/05 06:47:40;;;;;;;4.78;2.10;;;;;;;8.54;100.00;98236.56;4985637;28;20709;-64
2023/10/05 06:50:08;;;;;;;4.20;2.03;;;;;;;8.49;100.00;98231.81;4985337;28;20104;-64
2023/10/05 06:52:40;;;;;;;4.70;2.28;;;;;;;8.52;100.00;98231.34;4974582;28;20061;-65
2023/10/05 06:55:08;;;;;;;6.72;2.50;;;;;;;8.53;100.00;98229.53;4984495;28;20094;-63
2023/10/05 06:57:36;;;;;;;4.93;2.10;;;;;;;8.61;100.00;98231.97;4983550;28;20046;-64
2023/10/05 07:00:16;;;;;;;4.90;1.67;;;;;;;8.72;100.00;98235.84;4987356;28;20092;-65
2023/10/05 07:02:44;;;;;;;5.75;2.55;;;;;;;8.87;100.00;98240.94;4983478;28;20042;-64
2023/10/05 07:05:12;;;;;;;6.70;2.08;;;;;;;9.03;100.00;98241.44;4993574;28;20048;-64
2023/10/05 07:07:40;;;;;;;6.35;2.30;;;;;;;9.02;100.00;98240.59;4982897;28;20070;-63
2023/10/05 07:10:09;;;;;;;4.82;1.85;;;;;;;9.10;100.00;98248.44;4989136;28;20037;-64
2023/10/05 07:12:46;;;;;;;6.30;1.88;;;;;;;9.06;100.00;98238.28;4970129;28;20041;-66
2023/10/05 07:15:15;;;;;;;4.00;1.80;;;;;;;9.11;100.00;98238.47;4980371;28;20456;-63
2023/10/05 07:17:42;;;;;;;4.88;2.05;;;;;;;9.17;100.00;98240.25;4983160;28;20035;-63
2023/10/05 07:20:12;;;;;;;4.70;1.92;;;;;;;9.31;100.00;98245.53;4978692;28;20046;-64
2023/10/05 07:22:40;;;;;;;6.95;2.80;;;;;;;9.28;100.00;98246.00;4981279;28;20061;-63
2023/10/05 07:25:09;;;;;;;6.05;2.45;;;;;;;9.30;100.00;98252.00;4981995;28;20052;-63
2023/10/05 07:27:36;;;;;;;3.95;1.73;;;;;;;9.33;100.00;98255.09;4985768;28;20084;-65
2023/10/05 07:30:04;;;;;;;5.53;2.08;;;;;;;9.37;100.00;98258.19;4982460;28;20038;-64
2023/10/05 07:32:38;;;;;;;6.72;2.13;;;;;;;9.52;100.00;98254.28;5068173;28;20934;-65
2023/10/05 07:35:08;;;;;;;5.40;1.95;;;;;;;9.67;100.00;98259.34;5064662;28;20048;-65
2023/10/05 07:37:35;;;;;;;6.22;2.30;;;;;;;9.80;100.00;98255.69;5060674;28;20045;-66
2023/10/05 07:40:13;;;;;;;6.68;2.20;;;;;;;9.93;100.00;98260.94;5056830;28;20041;-61
2023/10/05 07:42:40;;;;;;;8.10;1.95;;;;;;;10.07;100.00;98264.31;5064232;28;20051;-62
2023/10/05 07:45:08;;;;;;;6.80;1.95;;;;;;;10.22;100.00;98274.75;5061015;28;20040;-60
2023/10/05 07:47:46;;;;;;;6.88;2.20;;;;;;;10.39;100.00;98265.97;5064131;28;20127;-60
2023/10/05 07:50:13;;;;;;;7.65;2.60;;;;;;;10.56;100.00;98262.69;5050646;28;20872;-59
2023/10/05 07:52:43;;;;;;;5.20;1.92;;;;;;;10.69;100.00;98265.19;5052128;28;20053;-59
2023/10/05 07:55:10;;;;;;;4.28;1.88;;;;;;;10.84;100.00;98272.09;5065017;28;20036;-60
2023/10/05 07:57:37;;;;;;;6.13;2.20;;;;;;;10.93;100.00;98267.97;5068554;28;20053;-59
2023/10/05 08:00:06;;;;;;;8.45;2.10;;;;;;;11.04;100.00;98267.19;5063871;28;20044;-65
2023/10/05 08:02:37;;;;;;;5.60;1.77;;;;;;;11.12;100.00;98270.59;5055536;28;20102;-66
2023/10/05 08:05:05;;;;;;;7.28;2.35;;;;;;;11.18;100.00;98272.38;5062128;28;20629;-64
2023/10/05 08:07:32;;;;;;;10.98;1.98;;;;;;;11.35;100.00;98282.53;5060191;28;20067;-59
2023/10/05 08:09:59;;;;;;;7.90;2.90;;;;;;;11.48;100.00;98281.47;5054959;28;20048;-60
2023/10/05 08:12:28;;;;;;;4.78;2.15;;;;;;;11.64;100.00;98282.69;5061412;28;20102;-61
2023/10/05 08:14:55;;;;;;;8.52;1.90;;;;;;;11.74;100.00;98293.75;5063793;28;20133;-64
2023/10/05 08:17:21;;;;;;;5.60;1.55;;;;;;;11.84;100.00;98288.53;5063065;28;20041;-65
2023/10/05 08:19:48;;;;;;;7.75;2.22;;;;;;;11.97;100.00;98292.91;5052665;28;20055;-64
2023/10/05 08:22:16;;;;;;;8.45;2.40;;;;;;;12.13;100.00;98298.69;5067439;28;20090;-60
2023/10/05 08:24:43;;;;;;;8.95;2.08;;;;;;;12.26;100.00;98292.16;5058954;28;20120;-59
2023/10/05 08:27:14;;;;;;;9.75;2.35;;;;;;;12.41;100.00;98305.22;5053061;28;20136;-59
2023/10/05 08:29:42;;;;;;;11.82;2.55;;;;;;;12.53;100.00;98301.66;5054807;28;20044;-60
2023/10/05 08:32:13;;;;;;;6.85;2.63;;;;;;;12.64;99.45;98302.66;5050370;28;20111;-63
2023/10/05 08:34:41;;;;;;;9.70;2.60;;;;;;;12.76;97.90;98303.44;5053924;28;20788;-63
2023/10/05 08:37:08;;;;;;;9.30;2.42;;;;;;;12.79;94.74;98299.41;5060912;28;20044;-64
2023/10/05 08:39:37;;;;;;;7.97;2.13;;;;;;;12.87;93.88;98299.81;5065366;28;20048;-62
2023/10/05 08:42:06;;;;;;;6.88;2.50;;;;;;;13.01;93.57;98294.91;5049071;28;20052;-59
2023/10/05 08:44:38;;;;;;;7.60;2.35;;;;;;;13.15;92.52;98300.03;5045046;28;20069;-58
2023/10/05 08:47:10;;;;;;;9.60;3.20;;;;;;;13.29;91.19;98291.56;5043195;28;20055;-58
2023/10/05 08:49:37;;;;;;;8.05;2.72;;;;;;;13.39;90.81;98281.66;5048685;28;20800;-62
2023/10/05 08:52:13;;;;;;;9.60;2.83;;;;;;;13.55;90.71;98281.94;5045635;28;20040;-61
2023/10/05 08:54:45;;;;;;;10.30;2.40;;;;;;;13.63;88.83;98289.69;5043766;28;20924;-57
2023/10/05 08:57:16;;;;;;;7.22;3.10;;;;;;;13.76;87.80;98295.84;5038820;28;20103;-62
2023/10/05 08:59:46;;;;;;;11.75;2.92;;;;;;;13.75;87.17;98291.50;5041329;28;20116;-61
2023/10/05 09:02:18;;;;;;;10.40;3.83;;;;;;;13.81;87.04;98285.03;5034856;28;20048;-58
2023/10/05 09:04:57;;;;;;;10.05;3.00;;;;;;;13.98;85.69;98287.72;5048980;28;20047;-62
2023/10/05 09:07:38;;;;;;;10.45;3.15;;;;;;;14.09;84.79;98285.13;5051197;28;20036;-58
2023/10/05 09:10:08;;;;;;;7.53;3.15;;;;;;;14.05;84.10;98295.72;5042658;28;20049;-58
2023/10/05 09:12:35;;;;;;;9.63;3.00;;;;;;;14.02;83.39;98291.59;5040291;28;20048;-58
2023/10/05 09:15:50;;;;;;;9.48;2.75;;;;;;;14.09;82.52;98296.84;5038671;28;20045;-59
2023/10/05 09:20:42;;;;;;;7.65;2.40;;;;;;;14.27;84.44;98298.41;5042821;28;20049;-59
2023/10/05 09:23:13;;;;;;;9.25;2.60;;;;;;;14.15;82.59;98298.56;5046593;28;20041;-62
2023/10/05 09:25:44;;;;;;;;;;;;;;;14.00;83.72;98303.78;5042079;28;20201;-60
2023/10/05 09:28:16;;;;;;;;;;;;;;;14.03;82.37;98300.56;5044016;28;20009;-57
2023/10/05 09:30:55;;;;;;;9.82;3.30;;;;;;;14.05;83.02;98295.72;5052047;28;20013;-56
2023/10/05 09:33:27;;;;;;;9.98;2.58;;;;;;;14.05;83.99;98301.16;5047968;28;20063;-58
2023/10/05 09:36:07;;;;;;;5.50;2.33;;;;;;;14.12;83.62;98307.22;5041972;28;20116;-55
2023/10/05 09:38:38;;;;;;;7.90;2.53;;;;;;;14.07;82.54;98309.06;5054450;28;20118;-55
2023/10/05 09:41:06;;;;;;;10.13;2.72;;;;;;;14.00;84.11;98309.22;5048248;28;20033;-57
2023/10/05 09:43:38;;;;;;;9.40;3.17;;;;;;;14.16;82.73;98318.44;5042331;28;20500;-62
2023/10/05 09:46:09;;;;;;;10.75;2.78;;;;;;;14.11;83.91;98318.38;5029836;28;20048;-61
2023/10/05 09:48:38;;;;;;;8.60;3.03;;;;;;;14.34;82.68;98322.75;5049748;28;20428;-61
2023/10/05 09:51:13;;;;;;;11.10;2.65;;;;;;;14.39;81.82;98313.81;5052910;28;20041;-61
2023/10/05 09:53:44;;;;;;;7.45;2.38;;;;;;;14.53;81.57;98309.63;5039611;28;20049;-61
2023/10/05 09:56:14;;;;;;;8.40;2.45;;;;;;;14.66;80.60;98313.88;5037988;28;20653;-61
2023/10/05 09:58:52;;;;;;;9.27;2.40;;;;;;;14.76;79.57;98313.19;5042823;28;20044;-62
2023/10/05 10:01:21;;;;;;;9.18;2.67;;;;;;;14.81;77.68;98312.41;5043908;28;20107;-61
2023/10/05 10:03:52;;;;;;;11.43;3.42;;;;;;;14.66;79.78;98308.41;5049827;28;20072;-62
2023/10/05 10:06:28;;;;;;;7.43;2.42;;;;;;;14.80;79.23;98305.31;5039546;28;20064;-61
2023/10/05 10:09:07;;;;;;;7.20;2.03;;;;;;;14.83;79.06;98311.06;5038012;28;21253;-61
2023/10/05 10:11:35;;;;;;;6.10;2.03;;;;;;;14.85;77.65;98310.81;5047877;28;20045;-61
2023/10/05 10:14:09;;;;;;;5.72;2.15;;;;;;;14.81;78.15;98309.69;5045722;28;20041;-61
2023/10/05 10:16:41;;;;;;;7.40;2.65;;;;;;;14.95;77.91;98308.22;5052018;28;20048;-61
2023/10/05 10:19:23;;;;;;;8.55;2.50;;;;;;;14.83;78.69;98313.78;5052181;28;20508;-61
2023/10/05 10:21:59;;;;;;;9.05;3.42;;;;;;;14.87;79.78;98316.84;5040430;28;20036;-61
2023/10/05 10:24:29;;;;;;;5.50;2.03;;;;;;;15.14;76.90;98317.94;5037228;28;20045;-61
2023/10/05 10:27:08;;;;;;;8.27;2.20;;;;;;;15.07;76.44;98321.69;5044163;28;20040;-59
2023/10/05 10:29:46;;;;;;;8.02;2.92;;;;;;;15.10;76.08;98328.53;5041507;28;20041;-60
2023/10/05 10:32:22;;;;;;;5.85;1.92;;;;;;;15.13;77.69;98327.19;5043969;28;20033;-59
2023/10/05 10:34:50;;;;;;;10.32;3.25;;;;;;;15.02;76.21;98329.81;5038233;28;20037;-59
2023/10/05 10:37:42;;;;;;;9.55;2.70;;;;;;;15.07;75.68;98334.47;5054418;28;20041;-59
2023/10/05 10:45:40;;;;;;;7.90;2.47;;;;;;;15.16;74.34;98326.66;5034628;28;20049;-62
2023/10/05 10:48:20;;;;;;;8.15;2.45;;;;;;;15.14;74.35;98321.47;5032612;28;20053;-62
2023/10/05 10:50:52;;;;;;;7.78;2.20;;;;;;;15.09;75.31;98315.97;5037377;28;20040;-62
2023/10/05 10:53:25;;;;;;;10.25;2.70;;;;;;;15.16;76.53;98316.59;5041891;28;20036;-60
2023/10/05 10:56:04;;;;;;;8.95;2.55;;;;;;;15.34;75.16;98320.81;5041866;28;20048;-60
2023/10/05 10:58:32;;;;;;;7.05;2.15;;;;;;;15.25;73.70;98311.47;5048324;28;20098;-59
2023/10/05 11:01:03;;;;;;;7.13;2.22;;;;;;;15.07;74.23;98307.22;5039371;28;20695;-58
2023/10/05 11:03:32;;;;;;;8.60;2.22;;;;;;;15.07;74.05;98310.75;5039928;28;20049;-60
2023/10/05 11:06:00;;;;;;;6.32;1.95;;;;;;;15.16;74.29;98304.84;5039851;28;20056;-59
2023/10/05 11:08:33;;;;;;;8.55;2.58;;;;;;;15.33;73.44;98307.44;5042294;28;20099;-60
2023/10/05 11:11:18;;;;;;;10.32;3.20;;;;;;;15.32;73.89;98312.09;5042115;28;20065;-62
2023/10/05 11:13:56;;;;;;;7.22;2.28;;;;;;;15.47;72.63;98326.94;5043965;28;20604;-62
2023/10/05 11:16:43;;;;;;;11.82;3.22;;;;;;;15.67;72.11;98326.25;5033437;28;20045;-64
2023/10/05 11:19:13;;;;;;;10.15;2.97;;;;;;;15.41;73.56;98315.13;5041803;28;20040;-62
2023/10/05 11:22:04;;;;;;;8.13;2.47;;;;;;;15.21;74.27;98303.00;5041532;28;20041;-62
2023/10/05 11:24:32;;;;;;;9.77;2.35;;;;;;;15.18;75.79;98299.94;5054326;28;20059;-63
2023/10/05 11:29:28;;;;;;;7.35;2.40;;;;;;;15.35;75.87;98316.19;5045260;28;20045;-61
2023/10/05 11:32:43;;;;;;;12.63;2.92;;;;;;;15.31;76.23;98313.19;5040070;28;20049;-62
2023/10/05 11:35:05;;;;;;;12.48;3.40;;;;;;;15.50;74.46;98310.03;5049526;28;20107;-65
2023/10/05 11:37:58;;;;;;;7.88;2.28;;;;;;;15.51;74.36;98300.75;5051849;28;20061;-62
2023/10/05 11:40:36;;;;;;;8.27;2.50;;;;;;;15.79;73.36;98304.22;5036168;28;20714;-62
2023/10/05 11:43:12;;;;;;;6.95;2.92;;;;;;;15.78;73.63;98301.75;5046219;28;20033;-61
2023/10/05 11:46:24;;;;;;;10.05;2.60;;;;;;;16.11;72.66;98319.72;5038915;28;20044;-61
2023/10/05 11:48:54;;;;;;;7.75;2.67;;;;;;;16.06;71.60;98310.69;5036977;28;20133;-60
2023/10/05 11:51:41;;;;;;;9.48;2.50;;;;;;;15.82;73.43;98298.22;5047077;28;20045;-64
2023/10/05 11:54:08;;;;;;;8.15;2.40;;;;;;;15.95;71.54;98287.94;5035108;28;20060;-61
2023/10/05 11:56:35;;;;;;;9.95;2.00;;;;;;;16.04;69.31;98275.47;5045201;28;20512;-60
2023/10/05 11:59:02;;;;;;;9.30;2.55;;;;;;;15.81;71.22;98284.88;5042403;28;20707;-61
2023/10/05 12:01:28;;;;;;;7.22;2.80;;;;;;;15.76;70.36;98293.00;5049256;28;20052;-59
2023/10/05 12:03:55;;;;;;;8.30;2.53;;;;;;;15.96;70.76;98292.34;5052757;28;20076;-58
2023/10/05 12:06:26;;;;;;;11.85;2.58;;;;;;;15.87;70.79;98292.00;5038653;28;20041;-59
2023/10/05 12:11:39;;;;;;;7.35;1.90;;;;;;;16.12;70.99;98302.28;5045456;28;20044;-59
2023/10/05 12:14:05;;;;;;;8.43;2.67;;;;;;;16.21;70.18;98305.31;5046945;28;20452;-59
2023/10/05 12:16:38;;;;;;;9.95;2.28;;;;;;;16.12;68.70;98302.28;5049465;28;20481;-59
2023/10/05 12:19:14;;;;;;;8.05;2.30;;;;;;;15.78;70.93;98308.06;5043560;28;20505;-59